ADDS METAR Data INFO
IDs: Format: Raw Decoded Include TAF

Data at: 1306 UTC 11 Dec 2017

KJNX 111255Z AUTO 00000KT 10SM CLR M03/M03 A3015 RMK AO2
KJNX 111235Z AUTO 00000KT 10SM CLR M03/M03 A3015 RMK AO2
KJNX 111215Z AUTO 00000KT 10SM CLR M03/M04 A3015 RMK AO2
KJNX 111155Z AUTO 00000KT 10SM CLR M03/M03 A3015 RMK AO2
KJNX 111135Z AUTO 00000KT 10SM CLR M03/M03 A3015 RMK AO2
KJNX 111115Z AUTO 00000KT 10SM CLR M03/M03 A3014 RMK AO2
KJNX 110955Z AUTO 00000KT 10SM CLR M03/M03 A3013 RMK AO2
KJNX 110935Z AUTO 00000KT 10SM CLR M02/M02 A3013 RMK AO2
KJNX 110915Z AUTO 00000KT 10SM CLR M03/M03 A3013 RMK AO2
KJNX 110855Z AUTO 00000KT 10SM CLR M02/M02 A3013 RMK AO2
KJNX 110835Z AUTO 00000KT 10SM CLR M02/M02 A3014 RMK AO2
KJNX 110815Z AUTO 00000KT 10SM CLR M02/M02 A3014 RMK AO2
KJNX 110735Z AUTO 00000KT 10SM CLR M02/M02 A3015 RMK AO2
KJNX 110715Z AUTO 00000KT 10SM CLR M02/M02 A3015 RMK AO2
KJNX 110655Z AUTO 00000KT 10SM CLR M02/M02 A3015 RMK AO2
KJNX 110635Z AUTO 00000KT 10SM CLR M02/M02 A3016 RMK AO2
KJNX 110555Z AUTO 00000KT 10SM CLR M02/M02 A3016 RMK AO2
KJNX 110455Z AUTO 00000KT 10SM CLR M02/M02 A3015 RMK AO2
KJNX 110415Z AUTO 00000KT 10SM CLR M01/M02 A3017 RMK AO2
KJNX 110335Z AUTO 00000KT 10SM CLR M01/M02 A3017 RMK AO2
KJNX 110315Z AUTO 00000KT 10SM CLR M01/M01 A3017 RMK AO2
KJNX 110255Z AUTO 00000KT 10SM CLR M01/M01 A3017 RMK AO2
KJNX 110235Z AUTO 00000KT 10SM CLR M01/M01 A3017 RMK AO2
KJNX 110215Z AUTO 00000KT 10SM CLR M01/M01 A3017 RMK AO2
KJNX 110155Z AUTO 00000KT 10SM CLR M01/M01 A3017 RMK AO2
KJNX 110135Z AUTO 00000KT 10SM CLR M01/M01 A3017 RMK AO2
KJNX 110115Z AUTO 00000KT 10SM CLR M01/M01 A3017 RMK AO2
KJNX 110055Z AUTO 00000KT 10SM CLR M01/M01 A3016 RMK AO2
KJNX 110035Z AUTO 00000KT 10SM CLR 00/M01 A3016 RMK AO2
KJNX 110015Z AUTO 00000KT 10SM CLR 00/M01 A3016 RMK AO2
KJNX 102355Z AUTO 00000KT 10SM CLR 00/M01 A3016 RMK AO2
KJNX 102335Z AUTO 00000KT 10SM CLR 00/M01 A3016 RMK AO2
KJNX 102315Z AUTO 00000KT 10SM CLR 01/M01 A3016 RMK AO2
KJNX 102255Z AUTO 00000KT 10SM CLR 02/00 A3016 RMK AO2
KJNX 102235Z AUTO 00000KT 10SM CLR 03/00 A3015 RMK AO2
KJNX 102215Z AUTO 00000KT 10SM CLR 05/M03 A3015 RMK AO2
KJNX 102155Z AUTO 00000KT 10SM CLR 06/M03 A3014 RMK AO2
KJNX 102135Z AUTO 00000KT 10SM CLR 06/M03 A3014 RMK AO2
KJNX 102115Z AUTO 00000KT 10SM CLR 06/M03 A3014 RMK AO2
KJNX 102055Z AUTO 24005KT 10SM CLR 07/M03 A3014 RMK AO2
KJNX 102035Z AUTO 27003KT 10SM CLR 07/M03 A3014 RMK AO2
KJNX 102015Z AUTO 29003KT 10SM CLR 07/M03 A3014 RMK AO2
KJNX 101955Z AUTO 24007KT 10SM CLR 06/M03 A3014 RMK AO2
KJNX 101935Z AUTO 00000KT 10SM CLR 07/M03 A3015 RMK AO2
KJNX 101915Z AUTO 25004KT 10SM CLR 06/M03 A3015 RMK AO2
KJNX 101855Z AUTO 27005KT 10SM CLR 06/M03 A3015 RMK AO2
KJNX 101835Z AUTO 30004KT 10SM CLR 06/M03 A3016 RMK AO2
KJNX 101815Z AUTO 29005KT 10SM CLR 06/M03 A3017 RMK AO2
KJNX 101755Z AUTO 29004KT 10SM CLR 06/M03 A3018 RMK AO2
KJNX 101735Z AUTO 27004KT 10SM CLR 06/M03 A3018 RMK AO2
KJNX 101715Z AUTO 25005KT 10SM CLR 05/M03 A3019 RMK AO2
KJNX 101655Z AUTO 31004KT 10SM CLR 05/M03 A3020 RMK AO2
KJNX 101635Z AUTO 30003KT 10SM SCT040 05/M03 A3021 RMK AO2
KJNX 101615Z AUTO 27004KT 10SM CLR 05/M03 A3021 RMK AO2
KJNX 101555Z AUTO 28006KT 10SM CLR 04/M02 A3021 RMK AO2
KJNX 101535Z AUTO 29005KT 10SM CLR 04/M02 A3021 RMK AO2
KJNX 101515Z AUTO 00000KT 10SM CLR 03/M01 A3021 RMK AO2
KJNX 101455Z AUTO 27004KT 10SM CLR 02/M02 A3021 RMK AO2
KJNX 101435Z AUTO 28005KT 10SM CLR 02/M02 A3021 RMK AO2
KJNX 101415Z AUTO 27006KT 10SM CLR 01/M01 A3020 RMK AO2
KJNX 101355Z AUTO 26003KT 10SM CLR 00/M01 A3018 RMK AO2
KJNX 101335Z AUTO 24004KT 10SM CLR 00/M01 A3018 RMK AO2
KJNX 101315Z AUTO 00000KT 10SM CLR 00/M01 A3016 RMK AO2
KJNX 101255Z AUTO 00000KT 10SM CLR M01/M02 A3015 RMK AO2
KJNX 101235Z AUTO 00000KT 10SM CLR M01/M02 A3015 RMK AO2
KJNX 101215Z AUTO 00000KT 10SM CLR M01/M02 A3014 RMK AO2
KJNX 101155Z AUTO 00000KT 10SM CLR 00/M01 A3013 RMK AO2
KJNX 101135Z AUTO 00000KT 10SM CLR 00/M01 A3012 RMK AO2
KJNX 101115Z AUTO 00000KT 10SM CLR 00/M01 A3011 RMK AO2
KJNX 101055Z AUTO 00000KT 10SM CLR 00/M02 A3010 RMK AO2
KJNX 101035Z AUTO 00000KT 10SM CLR 00/M01 A3009 RMK AO2
KJNX 101015Z AUTO 00000KT 10SM CLR 00/M01 A3008 RMK AO2
KJNX 100955Z AUTO 00000KT 10SM CLR 00/M01 A3007 RMK AO2
KJNX 100935Z AUTO 26003KT 10SM CLR 00/M01 A3006 RMK AO2
KJNX 100915Z AUTO 27003KT 10SM CLR 00/M01 A3005 RMK AO2
KJNX 100855Z AUTO 00000KT 10SM CLR 00/M01 A3004 RMK AO2
KJNX 100835Z AUTO 29003KT 10SM CLR 00/00 A3003 RMK AO2
KJNX 100815Z AUTO 00000KT 10SM CLR 01/00 A3002 RMK AO2
KJNX 100755Z AUTO 00000KT 10SM CLR 01/00 A3001 RMK AO2
KJNX 100735Z AUTO 25004KT 10SM CLR 01/01 A3000 RMK AO2
KJNX 100715Z AUTO 25004KT 7SM CLR 01/01 A2999 RMK AO2
KJNX 100655Z AUTO 25003KT 7SM CLR 01/01 A2998 RMK AO2
KJNX 100635Z AUTO 24003KT 7SM CLR 01/01 A2998 RMK AO2
KJNX 100615Z AUTO 00000KT 7SM SCT011 SCT095 01/01 A2997 RMK AO2
KJNX 100555Z AUTO 23003KT 7SM SCT011 SCT020 SCT095 01/01 A2997 RMK AO2
KJNX 100535Z AUTO 25003KT 7SM BKN011 BKN020 OVC095 01/01 A2997 RMK AO2
KJNX 100515Z AUTO 00000KT 7SM BKN011 BKN018 BKN095 01/01 A2996 RMK AO2
KJNX 100455Z AUTO 00000KT 7SM BKN011 BKN014 01/01 A2996 RMK AO2
KJNX 100435Z AUTO 00000KT 4SM BR SCT015 01/01 A2995 RMK AO2
KJNX 100415Z AUTO 00000KT 10SM SCT008 SCT025 01/01 A2995 RMK AO2
KJNX 100355Z AUTO 25003KT 10SM BKN008 BKN013 OVC025 02/02 A2995 RMK AO2
KJNX 100335Z AUTO 00000KT 10SM OVC008 02/02 A2995 RMK AO2
KJNX 100315Z AUTO 25003KT 10SM OVC008 02/02 A2995 RMK AO2
KJNX 100255Z AUTO 00000KT 10SM OVC010 02/01 A2994 RMK AO2
KJNX 100235Z AUTO 26003KT 10SM OVC010 01/01 A2994 RMK AO2
KJNX 100215Z AUTO 26005KT 10SM OVC008 01/01 A2993 RMK AO2
KJNX 100155Z AUTO 26004KT 10SM OVC008 01/01 A2992 RMK AO2
KJNX 100135Z AUTO 25003KT 10SM OVC008 01/01 A2991 RMK AO2
KJNX 100115Z AUTO 24003KT 10SM SCT005 SCT010 BKN070 01/01 A2990 RMK AO2